Latest Weather Observations for Noonamah

IDD60901

Issued at 7:31 am CST Tuesday 22 January 2019 (issued every 10 minutes, with the page automatically refreshed every 10 minutes)

About weather observations | Map of Darwin area stations | Latest observations for Darwin area | Other Formats
Station Details ID: 014314 Name: NOONAMAH AIRSTRIP Lat: -12.61 Lon: 131.05 Height: 17.5 m
Data from the previous 72 hours. | See also: Recent months at Noonamah
Date/Time
CST
Temp
°C
App
Temp
°C
Dew
Point
°C
Rel
Hum
%
Delta-T
°C
Wind Press
QNH
hPa
Press
MSL
hPa
Rain since
9am
mm
Dir  Spd
km/h
Gust
km/h
Spd
kts
Gust
kts
22/07:30am 25.7 30.9 24.8 95 0.6 ESE 6 7 3 4 1006.2 1006.0 1.4
22/07:00am 25.7 30.9 24.8 95 0.6 SE 6 7 3 4 1006.0 1005.8 1.2
22/06:30am 25.8 31.0 24.8 94 0.7 SE 6 7 3 4 1005.7 1005.5 0.0
22/06:00am 25.8 31.4 24.8 94 0.7 SE 4 6 2 3 1005.5 1005.3 0.0
22/05:30am 25.6 31.1 24.6 94 0.7 SE 4 6 2 3 1005.3 1005.1 0.0
22/05:00am 25.6 31.1 24.6 94 0.7 SSE 4 6 2 3 1005.0 1004.8 0.0
22/04:30am 25.7 30.7 24.5 93 0.8 SE 6 9 3 5 1005.1 1004.9 0.0
22/04:00am 25.7 30.5 24.5 93 0.8 SE 7 13 4 7 1005.0 1004.8 0.0
22/03:30am 25.6 30.5 24.4 93 0.8 SE 6 9 3 5 1005.2 1005.0 0.0
22/03:00am 25.4 30.6 24.2 93 0.8 SSE 4 6 2 3 1005.2 1005.0 0.0
22/02:30am 25.5 30.6 24.1 92 1.0 SSE 4 6 2 3 1005.7 1005.5 0.0
22/02:00am 25.6 30.7 24.0 91 1.1 SSE 4 6 2 3 1006.0 1005.8 0.0
22/01:30am 25.8 30.5 24.0 90 1.2 SSE 6 9 3 5 1006.5 1006.3 0.0
22/01:00am 26.1 30.8 24.3 90 1.2 SSE 7 11 4 6 1006.6 1006.4 0.0
22/12:30am 26.4 31.5 24.6 90 1.3 SSE 6 9 3 5 1006.8 1006.6 0.0
22/12:00am 26.9 32.4 24.7 88 1.5 SSE 4 7 2 4 1006.8 1006.6 0.0
 
Date/Time
CST
Temp
°C
App
Temp
°C
Dew
Point
°C
Rel
Hum
%
Delta-T
°C
Wind Press
QNH
hPa
Press
MSL
hPa
Rain since
9am
mm
Dir  Spd
km/h
Gust
km/h
Spd
kts
Gust
kts
21/11:30pm 27.5 33.6 25.7 90 1.3 SE 4 6 2 3 1006.8 1006.6 0.0
21/11:00pm 27.6 34.2 25.8 90 1.3 SE 2 4 1 2 1006.8 1006.6 0.0
21/10:30pm 27.9 33.7 25.7 88 1.6 SSE 6 9 3 5 1006.9 1006.7 0.0
21/10:00pm 28.1 33.9 25.7 87 1.7 SE 6 7 3 4 1006.9 1006.7 0.0
21/09:30pm 28.4 34.9 25.6 85 2.0 SE 2 4 1 2 1006.8 1006.6 0.0
21/09:00pm 28.7 34.7 25.5 83 2.3 SE 4 7 2 4 1006.2 1006.0 0.0
21/08:30pm 28.6 34.7 25.6 84 2.1 SSE 4 6 2 3 1005.9 1005.7 0.0
21/08:00pm 28.7 35.2 25.7 84 2.1 SSE 2 4 1 2 1005.1 1004.9 0.0
21/07:30pm 28.7 34.7 25.5 83 2.3 SE 4 6 2 3 1004.7 1004.5 0.0
21/07:00pm 28.8 34.6 25.2 81 2.5 SE 4 7 2 4 1004.7 1004.5 0.0
21/06:30pm 29.1 34.5 25.1 79 2.8 SE 6 9 3 5 1004.4 1004.2 0.0
21/06:00pm 29.6 34.7 24.9 76 3.3 ESE 7 11 4 6 1004.2 1004.0 0.0
21/05:30pm 30.6 35.3 25.0 72 4.0 ESE 9 17 5 9 1003.6 1003.4 0.0
21/05:00pm 31.5 34.4 24.4 66 5.0 E 17 26 9 14 1003.4 1003.2 0.0
21/04:30pm 33.1 36.3 24.3 60 6.2 NE 15 26 8 14 1002.8 1002.6 0.0
21/04:00pm 33.6 36.7 24.2 58 6.6 NE 15 22 8 12 1003.1 1002.9 0.0
21/03:30pm 32.2 36.1 24.3 63 5.5 ENE 11 19 6 10 1003.2 1003.0 0.0
21/03:00pm 32.9 36.1 24.4 61 6.0 NE 15 26 8 14 1003.5 1003.3 0.0
21/02:30pm 33.0 37.3 24.2 60 6.2 E 9 20 5 11 1003.9 1003.7 0.0
21/02:00pm 33.0 37.6 24.7 61 5.8 E 9 15 5 8 1004.6 1004.4 0.0
21/01:30pm 33.5 37.4 24.9 60 6.1 ENE 13 22 7 12 1005.0 1004.8 0.0
21/01:00pm 33.5 36.7 24.4 59 6.4 E 15 26 8 14 1005.5 1005.3 0.0
21/12:30pm 33.8 37.0 24.4 58 6.6 ESE 15 24 8 13 1005.8 1005.6 0.0
21/12:00pm 32.2 36.1 24.8 65 5.2 E 13 19 7 10 1006.1 1005.9 0.0
21/11:30am 32.0 36.2 24.8 65 5.1 ESE 11 19 6 10 1006.3 1006.1 0.0
21/11:00am 30.8 35.1 24.9 71 4.1 ESE 11 15 6 8 1006.4 1006.2 0.0
21/10:30am 30.4 35.6 25.7 76 3.3 ESE 9 15 5 8 1006.6 1006.4 0.0
21/10:00am 29.6 34.7 25.6 79 2.8 ESE 9 17 5 9 1006.8 1006.6 0.0
21/09:30am 29.2 33.7 25.2 79 2.8 ESE 11 15 6 8 1006.7 1006.5 0.0
21/09:00am 28.7 33.4 24.9 80 2.7 SE 9 13 5 7 1006.5 1006.3 12.2
21/08:30am 28.5 33.2 24.9 81 2.5 ESE 9 13 5 7 1006.2 1006.0 12.2
21/08:00am 27.8 32.7 25.2 86 1.8 ESE 9 13 5 7 1006.1 1005.9 12.2
21/07:30am 26.8 31.9 25.0 90 1.3 SE 7 11 4 6 1005.9 1005.7 12.2
21/07:00am 26.1 31.7 25.4 96 0.5 SE 6 9 3 5 1005.6 1005.4 12.2
21/06:30am 25.8 31.9 25.1 96 0.5 SSE 2 4 1 2 1005.3 1005.1 12.2
21/06:00am 25.9 32.5 25.2 96 0.5 CALM 0 0 0 0 1005.3 1005.1 12.2
21/05:30am 25.9 32.1 25.2 96 0.5 SSE 2 4 1 2 1005.1 1004.9 12.2
21/05:00am 25.9 31.6 25.0 95 0.6 SE 4 6 2 3 1004.8 1004.6 12.2
21/04:30am 26.1 32.8 25.4 96 0.5 CALM 0 2 0 1 1004.8 1004.6 12.2
21/04:00am 26.3 33.1 25.6 96 0.5 CALM 0 0 0 0 1004.9 1004.7 12.2
21/03:30am 26.4 32.9 25.7 96 0.5 SSE 2 4 1 2 1005.1 1004.9 12.2
21/03:00am 26.5 33.3 25.6 95 0.6 CALM 0 0 0 0 1005.1 1004.9 12.2
21/02:30am 26.5 33.0 25.6 95 0.6 SSE 2 2 1 1 1005.5 1005.3 12.2
21/02:00am 26.6 33.6 25.9 96 0.5 CALM 0 4 0 2 1005.8 1005.6 12.2
21/01:30am 26.5 33.0 25.6 95 0.6 SSE 2 4 1 2 1006.3 1006.1 12.2
21/01:00am 26.6 33.5 25.7 95 0.6 CALM 0 0 0 0 1006.7 1006.5 12.2
21/12:30am 26.6 33.1 25.6 94 0.7 SSE 2 6 1 3 1007.0 1006.8 12.2
21/12:00am 26.6 33.1 25.6 94 0.7 SSE 2 4 1 2 1007.3 1007.1 12.2
 
Date/Time
CST
Temp
°C
App
Temp
°C
Dew
Point
°C
Rel
Hum
%
Delta-T
°C
Wind Press
QNH
hPa
Press
MSL
hPa
Rain since
9am
mm
Dir  Spd
km/h
Gust
km/h
Spd
kts
Gust
kts
20/11:30pm 26.6 32.7 25.6 94 0.7 SSE 4 6 2 3 1007.7 1007.5 12.2
20/11:00pm 26.7 32.7 25.5 93 0.8 SE 4 6 2 3 1008.0 1007.8 12.2
20/10:30pm 26.7 33.6 25.7 94 0.7 CALM 0 0 0 0 1007.8 1007.6 12.0
20/10:00pm 26.6 32.5 25.4 93 0.8 SSE 4 6 2 3 1007.7 1007.5 12.0
20/09:30pm 26.6 33.3 25.4 93 0.8 CALM 0 4 0 2 1007.2 1007.0 12.0
20/09:00pm 26.6 33.2 25.2 92 1.0 CALM 0 0 0 0 1006.8 1006.6 12.0
20/08:30pm 26.4 32.2 25.2 93 0.8 SSE 4 6 2 3 1006.4 1006.2 12.0
20/08:00pm 26.5 33.0 25.1 92 1.0 CALM 0 2 0 1 1006.0 1005.8 12.0
20/07:30pm 26.3 32.4 24.5 90 1.2 CALM 0 0 0 0 1006.0 1005.8 11.8
20/07:00pm 26.2 31.8 24.8 92 1.0 SSE 4 6 2 3 1005.5 1005.3 11.8
20/06:30pm 25.8 30.3 23.7 88 1.4 E 6 11 3 6 1005.4 1005.2 11.8
20/06:00pm 28.2 34.4 26.4 90 1.3 SE 6 17 3 9 1005.1 1004.9 11.2
20/05:30pm 28.2 34.4 26.4 90 1.3 N 6 9 3 5 1004.5 1004.3 11.0
20/05:00pm 28.5 34.4 25.3 83 2.3 N 4 7 2 4 1004.5 1004.3 10.4
20/04:30pm 28.9 34.5 25.7 83 2.3 NNE 7 15 4 8 1004.4 1004.2 10.4
20/04:00pm 28.3 35.7 26.5 90 1.3 CALM 0 0 0 0 1004.5 1004.3 10.4
20/03:30pm 27.4 34.6 26.2 93 0.9 CALM 0 6 0 3 1004.7 1004.5 10.2
20/03:00pm 30.1 34.0 24.3 71 4.1 ENE 11 20 6 11 1004.6 1004.4 0.0
20/02:30pm 33.6 38.0 24.5 59 6.4 SSE 9 19 5 10 1004.5 1004.3 0.0
20/02:00pm 33.1 37.6 24.6 61 6.0 ESE 9 17 5 9 1005.2 1005.0 0.0
20/01:30pm 33.3 38.2 24.7 60 6.1 SE 7 15 4 8 1005.6 1005.4 0.0
20/01:00pm 32.8 36.0 24.3 61 6.0 SE 15 24 8 13 1006.2 1006.0 0.0
20/12:30pm 32.7 36.9 24.7 62 5.6 SE 11 20 6 11 1006.4 1006.2 0.0
20/12:00pm 32.6 37.1 24.6 62 5.6 SE 9 15 5 8 1006.7 1006.5 0.0
20/11:30am 32.6 37.9 25.9 68 4.8 SE 9 19 5 10 1006.9 1006.7 0.0
20/11:00am 31.5 36.2 24.9 68 4.6 SSE 9 17 5 9 1007.3 1007.1 0.0
20/10:30am 31.0 36.5 25.6 73 3.8 SSE 7 13 4 7 1007.5 1007.3 0.0
20/10:00am 30.4 35.7 25.2 74 3.7 SSE 7 11 4 6 1007.7 1007.5 0.0
20/09:30am 29.6 35.3 25.6 79 2.8 SSE 6 9 3 5 1008.1 1007.9 0.0
20/09:00am 29.3 35.2 25.9 82 2.4 SSE 6 9 3 5 1008.0 1007.8 -
20/08:30am 27.8 32.8 25.4 87 1.7 SSE 9 11 5 6 1007.7 1007.5 -
20/08:00am 27.0 32.4 25.2 90 1.3 SSE 6 9 3 5 1007.6 1007.4 -
20/07:30am 26.0 32.3 25.3 96 0.5 SSE 2 4 1 2 1007.2 1007.0 -
20/07:00am 25.3 31.6 24.8 97 0.3 CALM 0 0 0 0 1006.9 1006.7 -
20/06:30am 25.2 31.5 24.7 97 0.3 CALM 0 0 0 0 1006.4 1006.2 -
20/06:00am 25.2 31.3 24.5 96 0.5 CALM 0 0 0 0 1005.9 1005.7 -
20/05:30am 25.4 31.7 24.7 96 0.5 CALM 0 0 0 0 1005.7 1005.5 -
20/05:00am 25.4 31.4 24.9 97 0.3 S 2 4 1 2 1005.7 1005.5 -
20/04:30am 25.5 31.8 24.8 96 0.5 CALM 0 0 0 0 1005.9 1005.7 -
20/04:00am 25.6 32.0 24.9 96 0.5 CALM 0 0 0 0 1006.2 1006.0 -
20/03:30am 25.7 32.2 25.0 96 0.5 CALM 0 0 0 0 1006.4 1006.2 -
20/03:00am 25.6 32.0 24.9 96 0.5 CALM 0 0 0 0 1006.2 1006.0 0.0
20/02:30am 25.7 32.2 25.0 96 0.5 CALM 0 0 0 0 1006.3 1006.1 -
20/02:00am 25.7 32.2 25.0 96 0.5 CALM 0 0 0 0 1006.1 1005.9 -
20/01:30am 25.9 32.5 25.2 96 0.5 CALM 0 0 0 0 1006.8 1006.6 -
20/01:00am 25.9 32.5 25.2 96 0.5 CALM 0 0 0 0 1007.2 1007.0 -
20/12:30am 25.9 32.5 25.2 96 0.5 CALM 0 0 0 0 1007.4 1007.2 -
20/12:00am 26.0 32.5 25.1 95 0.6 CALM 0 0 0 0 1007.5 1007.3 -
 
Date/Time
CST
Temp
°C
App
Temp
°C
Dew
Point
°C
Rel
Hum
%
Delta-T
°C
Wind Press
QNH
hPa
Press
MSL
hPa
Rain since
9am
mm
Dir  Spd
km/h
Gust
km/h
Spd
kts
Gust
kts
19/11:30pm 26.1 32.7 25.2 95 0.6 CALM 0 2 0 1 1007.8 1007.6 -
19/11:00pm 26.2 32.5 25.3 95 0.6 SSE 2 6 1 3 1008.2 1008.0 -
19/10:30pm 26.3 32.2 25.4 95 0.6 SSE 4 6 2 3 1008.6 1008.4 -
19/10:00pm 26.5 32.5 25.5 94 0.7 SSE 4 7 2 4 1008.8 1008.6 -
19/09:30pm 26.6 32.4 25.7 95 0.6 S 6 7 3 4 1008.5 1008.3 -
19/09:00pm 26.6 33.1 25.7 95 0.6 SSW 2 4 1 2 1007.9 1007.7 -
19/08:30pm 26.8 33.8 25.9 95 0.6 CALM 0 0 0 0 1007.4 1007.2 -
19/08:00pm 26.7 32.8 25.7 94 0.7 SSW 4 6 2 3 1006.9 1006.7 -
19/07:30pm 26.7 33.5 25.5 93 0.8 CALM 0 0 0 0 1006.6 1006.4 6.4
19/07:00pm 26.7 33.5 25.5 93 0.8 CALM 0 2 0 1 1006.2 1006.0 6.4
19/06:30pm 26.7 33.3 25.3 92 1.0 CALM 0 0 0 0 1005.5 1005.3 6.4
19/06:00pm 26.8 32.7 25.4 92 1.0 SSW 4 7 2 4 1005.2 1005.0 6.4
19/05:30pm 27.1 33.2 25.7 92 1.0 SSW 4 6 2 3 1005.1 1004.9 6.4
19/05:00pm 27.3 33.4 25.7 91 1.1 SSW 4 6 2 3 1005.5 1005.3 6.4
19/04:30pm 27.3 34.2 25.7 91 1.1 CALM 0 0 0 0 1005.9 1005.7 6.4
19/04:00pm 27.6 34.6 25.8 90 1.3 CALM 0 0 0 0 1006.5 1006.3 5.6
19/03:30pm 27.3 32.9 25.5 90 1.3 WSW 6 7 3 4 1006.2 1006.0 5.4
19/03:00pm 26.5 33.0 25.1 92 1.0 CALM 0 2 0 1 1006.5 1006.3 5.4
19/02:30pm 26.4 31.4 24.8 91 1.1 W 7 15 4 8 1006.5 1006.3 3.2
19/02:00pm 26.7 30.5 25.3 92 1.0 NNW 15 24 8 13 1006.6 1006.4 2.4
19/01:47pm 27.0 29.4 23.7 82 2.3 NNE 17 32 9 17 1006.3 1006.1 1.0
19/01:30pm 32.0 36.4 23.5 60 5.9 N 6 13 3 7 1006.3 1006.1 0.0
19/01:00pm 33.0 37.9 23.6 57 6.5 N 4 9 2 5 1006.9 1006.7 0.0
19/12:30pm 33.0 37.1 23.3 56 6.7 SE 7 11 4 6 1007.3 1007.1 0.0
19/12:00pm 33.1 38.6 24.0 59 6.4 N 2 9 1 5 1007.7 1007.5 0.0
19/11:30am 32.4 36.9 23.6 59 6.1 ESE 6 9 3 5 1008.2 1008.0 0.0
19/11:00am 31.5 36.9 23.9 64 5.3 ESE 2 7 1 4 1008.3 1008.1 0.0
19/10:30am 31.1 36.6 24.7 68 4.5 SSE 4 7 2 4 1008.5 1008.3 0.0
19/10:00am 29.9 34.9 24.5 73 3.8 SE 6 9 3 5 1008.6 1008.4 0.0
19/09:30am 28.8 33.9 24.6 78 2.9 SE 6 7 3 4 1008.8 1008.6 0.0
19/09:00am 27.7 32.4 24.3 82 2.4 ESE 7 9 4 5 1008.7 1008.5 0.0
19/08:30am 27.2 32.2 24.5 85 1.9 SE 6 7 3 4 1008.5 1008.3 0.0
19/08:00am 26.4 31.3 24.4 89 1.4 SE 6 7 3 4 1008.2 1008.0 0.0

Latest Capital City Observations: Canberra | Sydney | Melbourne | Brisbane | Adelaide | Perth | Hobart | Darwin

Other Formats:

Comma delimited format used in spreadsheet applications
http://www.bom.gov.au/fwo/IDD60901/IDD60901.94105.axf

JavaScript Object Notation format (JSON) in row-major order
http://www.bom.gov.au/fwo/IDD60901/IDD60901.94105.json